sensor_id;sensor_type;location;lat;lon;timestamp;temperature;humidity
41944;DHT22;27636;52.610;13.244;2024-01-07T00:03:13;-0.80;99.90
41944;DHT22;27636;52.610;13.244;2024-01-07T00:08:17;-0.90;99.90
41944;DHT22;27636;52.610;13.244;2024-01-07T00:13:21;-0.90;99.90
41944;DHT22;27636;52.610;13.244;2024-01-07T00:18:26;-0.90;99.90
41944;DHT22;27636;52.610;13.244;2024-01-07T00:23:31;-1.00;99.90
41944;DHT22;27636;52.610;13.244;2024-01-07T00:28:34;-1.10;99.90
41944;DHT22;27636;52.610;13.244;2024-01-07T00:33:39;-1.20;99.90
41944;DHT22;27636;52.610;13.244;2024-01-07T00:38:43;-1.20;99.90
41944;DHT22;27636;52.610;13.244;2024-01-07T00:43:48;-1.30;99.90
41944;DHT22;27636;52.610;13.244;2024-01-07T00:48:53;-1.40;99.90
41944;DHT22;27636;52.610;13.244;2024-01-07T00:53:57;-1.30;99.90
41944;DHT22;27636;52.610;13.244;2024-01-07T00:59:01;-1.40;99.90
41944;DHT22;27636;52.610;13.244;2024-01-07T01:04:07;-1.40;99.90
41944;DHT22;27636;52.610;13.244;2024-01-07T01:09:11;-1.50;99.90
41944;DHT22;27636;52.610;13.244;2024-01-07T01:14:15;-1.60;99.90
41944;DHT22;27636;52.610;13.244;2024-01-07T01:19:20;-1.60;99.90
41944;DHT22;27636;52.610;13.244;2024-01-07T01:24:24;-1.70;99.90
41944;DHT22;27636;52.610;13.244;2024-01-07T01:29:28;-1.70;99.90
41944;DHT22;27636;52.610;13.244;2024-01-07T01:34:34;-1.90;99.90
41944;DHT22;27636;52.610;13.244;2024-01-07T01:39:39;-2.00;99.90
41944;DHT22;27636;52.610;13.244;2024-01-07T01:44:43;-2.00;99.90
41944;DHT22;27636;52.610;13.244;2024-01-07T01:49:49;-2.10;99.90
41944;DHT22;27636;52.610;13.244;2024-01-07T01:54:53;-2.20;99.90
41944;DHT22;27636;52.610;13.244;2024-01-07T01:59:57;-2.20;99.90
41944;DHT22;27636;52.610;13.244;2024-01-07T02:05:09;-2.30;99.90
41944;DHT22;27636;52.610;13.244;2024-01-07T02:10:13;-2.40;99.90
41944;DHT22;27636;52.610;13.244;2024-01-07T02:15:17;-2.40;99.90
41944;DHT22;27636;52.610;13.244;2024-01-07T02:20:22;-2.40;99.90
41944;DHT22;27636;52.610;13.244;2024-01-07T02:25:28;-2.50;99.90
41944;DHT22;27636;52.610;13.244;2024-01-07T02:30:32;-2.50;99.90
41944;DHT22;27636;52.610;13.244;2024-01-07T02:35:36;-2.50;99.90
41944;DHT22;27636;52.610;13.244;2024-01-07T02:40:41;-2.50;99.90
41944;DHT22;27636;52.610;13.244;2024-01-07T02:45:46;-2.50;99.90
41944;DHT22;27636;52.610;13.244;2024-01-07T02:50:50;-2.50;99.90
41944;DHT22;27636;52.610;13.244;2024-01-07T02:55:56;-2.60;99.90
41944;DHT22;27636;52.610;13.244;2024-01-07T03:00:59;-2.60;99.90
41944;DHT22;27636;52.610;13.244;2024-01-07T03:06:04;-2.70;99.90
41944;DHT22;27636;52.610;13.244;2024-01-07T03:11:09;-2.70;99.90
41944;DHT22;27636;52.610;13.244;2024-01-07T03:16:18;-2.80;99.90
41944;DHT22;27636;52.610;13.244;2024-01-07T03:21:23;-2.90;99.90
41944;DHT22;27636;52.610;13.244;2024-01-07T03:26:30;-2.90;99.90
41944;DHT22;27636;52.610;13.244;2024-01-07T03:31:35;-3.00;99.90
41944;DHT22;27636;52.610;13.244;2024-01-07T03:36:39;-3.00;99.90
41944;DHT22;27636;52.610;13.244;2024-01-07T03:41:45;-3.10;99.90
41944;DHT22;27636;52.610;13.244;2024-01-07T03:46:48;-3.20;99.90
41944;DHT22;27636;52.610;13.244;2024-01-07T03:51:52;-3.20;99.90
41944;DHT22;27636;52.610;13.244;2024-01-07T03:56:57;-3.20;99.90
41944;DHT22;27636;52.610;13.244;2024-01-07T04:02:01;-3.30;99.90
41944;DHT22;27636;52.610;13.244;2024-01-07T04:07:06;-3.10;99.90
41944;DHT22;27636;52.610;13.244;2024-01-07T04:12:11;-3.10;99.90
41944;DHT22;27636;52.610;13.244;2024-01-07T04:17:15;-3.00;99.90
41944;DHT22;27636;52.610;13.244;2024-01-07T04:22:19;-2.90;99.90
41944;DHT22;27636;52.610;13.244;2024-01-07T04:27:24;-2.90;99.90
41944;DHT22;27636;52.610;13.244;2024-01-07T04:32:30;-2.80;99.90
41944;DHT22;27636;52.610;13.244;2024-01-07T04:37:35;-2.70;99.90
41944;DHT22;27636;52.610;13.244;2024-01-07T04:42:40;-2.70;99.90
41944;DHT22;27636;52.610;13.244;2024-01-07T04:47:43;-2.50;99.90
41944;DHT22;27636;52.610;13.244;2024-01-07T04:52:47;-2.40;99.90
41944;DHT22;27636;52.610;13.244;2024-01-07T04:57:53;-2.30;99.90
41944;DHT22;27636;52.610;13.244;2024-01-07T05:02:57;-2.30;99.90
41944;DHT22;27636;52.610;13.244;2024-01-07T05:08:00;-2.30;99.90
41944;DHT22;27636;52.610;13.244;2024-01-07T05:13:05;-2.30;99.90
41944;DHT22;27636;52.610;13.244;2024-01-07T05:18:10;-2.20;99.90
41944;DHT22;27636;52.610;13.244;2024-01-07T05:23:16;-2.20;99.90
41944;DHT22;27636;52.610;13.244;2024-01-07T05:28:22;-2.20;99.90
41944;DHT22;27636;52.610;13.244;2024-01-07T05:33:26;-2.20;99.90
41944;DHT22;27636;52.610;13.244;2024-01-07T05:38:30;-2.10;99.90
41944;DHT22;27636;52.610;13.244;2024-01-07T05:43:37;-2.00;99.90
41944;DHT22;27636;52.610;13.244;2024-01-07T05:48:41;-2.00;99.90
41944;DHT22;27636;52.610;13.244;2024-01-07T05:53:46;-2.00;99.90
41944;DHT22;27636;52.610;13.244;2024-01-07T05:58:52;-2.10;99.90
41944;DHT22;27636;52.610;13.244;2024-01-07T06:03:55;-2.00;99.90
41944;DHT22;27636;52.610;13.244;2024-01-07T06:08:59;-2.00;99.90
41944;DHT22;27636;52.610;13.244;2024-01-07T06:14:04;-1.90;99.90
41944;DHT22;27636;52.610;13.244;2024-01-07T06:19:09;-1.90;99.90
41944;DHT22;27636;52.610;13.244;2024-01-07T06:24:13;-2.00;99.90
41944;DHT22;27636;52.610;13.244;2024-01-07T06:29:20;-1.80;99.90
41944;DHT22;27636;52.610;13.244;2024-01-07T06:34:24;-1.90;99.90
41944;DHT22;27636;52.610;13.244;2024-01-07T06:39:27;-1.80;99.90
41944;DHT22;27636;52.610;13.244;2024-01-07T06:44:33;-1.80;99.90
41944;DHT22;27636;52.610;13.244;2024-01-07T06:49:36;-1.80;99.90
41944;DHT22;27636;52.610;13.244;2024-01-07T06:54:41;-1.80;99.90
41944;DHT22;27636;52.610;13.244;2024-01-07T06:59:47;-1.80;99.90
41944;DHT22;27636;52.610;13.244;2024-01-07T07:04:50;-1.60;99.90
41944;DHT22;27636;52.610;13.244;2024-01-07T07:09:55;-1.50;99.90
41944;DHT22;27636;52.610;13.244;2024-01-07T07:15:00;-1.50;99.90
41944;DHT22;27636;52.610;13.244;2024-01-07T07:20:05;-1.60;99.90
41944;DHT22;27636;52.610;13.244;2024-01-07T07:25:10;-1.70;99.90
41944;DHT22;27636;52.610;13.244;2024-01-07T07:30:15;-1.70;99.90
41944;DHT22;27636;52.610;13.244;2024-01-07T07:35:19;-1.80;99.90
41944;DHT22;27636;52.610;13.244;2024-01-07T07:40:23;-1.70;99.90
41944;DHT22;27636;52.610;13.244;2024-01-07T07:45:28;-1.70;99.90
41944;DHT22;27636;52.610;13.244;2024-01-07T07:50:32;-1.60;99.90
41944;DHT22;27636;52.610;13.244;2024-01-07T07:55:36;-1.60;99.90
41944;DHT22;27636;52.610;13.244;2024-01-07T08:00:41;-1.60;99.90
41944;DHT22;27636;52.610;13.244;2024-01-07T08:05:45;-1.50;99.90
41944;DHT22;27636;52.610;13.244;2024-01-07T08:10:50;-1.50;99.90
41944;DHT22;27636;52.610;13.244;2024-01-07T08:15:55;-1.40;99.90
41944;DHT22;27636;52.610;13.244;2024-01-07T08:20:59;-1.20;99.90
41944;DHT22;27636;52.610;13.244;2024-01-07T08:26:03;-1.30;99.90
41944;DHT22;27636;52.610;13.244;2024-01-07T08:31:08;-1.40;99.90
41944;DHT22;27636;52.610;13.244;2024-01-07T08:36:12;-1.40;99.90
41944;DHT22;27636;52.610;13.244;2024-01-07T08:41:16;-1.30;99.90
41944;DHT22;27636;52.610;13.244;2024-01-07T08:46:22;-1.00;99.90
41944;DHT22;27636;52.610;13.244;2024-01-07T08:51:26;-0.90;99.90
41944;DHT22;27636;52.610;13.244;2024-01-07T08:56:31;-0.80;99.90
41944;DHT22;27636;52.610;13.244;2024-01-07T09:01:36;-0.90;99.90
41944;DHT22;27636;52.610;13.244;2024-01-07T09:06:40;-0.70;99.90
41944;DHT22;27636;52.610;13.244;2024-01-07T09:11:44;-0.70;99.90
41944;DHT22;27636;52.610;13.244;2024-01-07T09:16:50;-0.70;99.90
41944;DHT22;27636;52.610;13.244;2024-01-07T09:21:55;-0.60;99.90
41944;DHT22;27636;52.610;13.244;2024-01-07T09:27:01;-0.50;99.90
41944;DHT22;27636;52.610;13.244;2024-01-07T09:32:06;-0.60;99.90
41944;DHT22;27636;52.610;13.244;2024-01-07T09:37:10;-0.60;99.90
41944;DHT22;27636;52.610;13.244;2024-01-07T09:42:15;-0.60;99.90
41944;DHT22;27636;52.610;13.244;2024-01-07T09:47:20;-0.60;99.90
41944;DHT22;27636;52.610;13.244;2024-01-07T09:52:27;-0.70;99.90
41944;DHT22;27636;52.610;13.244;2024-01-07T09:57:31;-0.60;99.90
41944;DHT22;27636;52.610;13.244;2024-01-07T10:02:39;-0.40;99.90
41944;DHT22;27636;52.610;13.244;2024-01-07T10:07:45;-0.20;99.90
41944;DHT22;27636;52.610;13.244;2024-01-07T10:12:49;-0.10;99.90
41944;DHT22;27636;52.610;13.244;2024-01-07T10:18:02;-0.20;99.90
41944;DHT22;27636;52.610;13.244;2024-01-07T10:23:06;-0.10;99.90
41944;DHT22;27636;52.610;13.244;2024-01-07T10:28:11;-0.10;99.90
41944;DHT22;27636;52.610;13.244;2024-01-07T10:33:18;0.00;99.90
41944;DHT22;27636;52.610;13.244;2024-01-07T10:38:28;0.10;99.90
41944;DHT22;27636;52.610;13.244;2024-01-07T10:43:32;0.20;99.90
41944;DHT22;27636;52.610;13.244;2024-01-07T10:48:42;0.20;99.90
41944;DHT22;27636;52.610;13.244;2024-01-07T10:53:52;0.20;99.90
41944;DHT22;27636;52.610;13.244;2024-01-07T10:58:59;0.20;99.90
41944;DHT22;27636;52.610;13.244;2024-01-07T11:04:06;0.40;99.90
41944;DHT22;27636;52.610;13.244;2024-01-07T11:09:14;0.60;99.90
41944;DHT22;27636;52.610;13.244;2024-01-07T11:14:36;0.70;99.90
41944;DHT22;27636;52.610;13.244;2024-01-07T11:19:50;0.70;99.90
41944;DHT22;27636;52.610;13.244;2024-01-07T11:24:55;0.60;99.90
41944;DHT22;27636;52.610;13.244;2024-01-07T11:30:04;0.60;99.90
41944;DHT22;27636;52.610;13.244;2024-01-07T11:35:12;0.40;99.90
41944;DHT22;27636;52.610;13.244;2024-01-07T11:40:16;0.40;99.90
41944;DHT22;27636;52.610;13.244;2024-01-07T11:45:20;0.40;99.90
41944;DHT22;27636;52.610;13.244;2024-01-07T11:50:27;0.30;99.90
41944;DHT22;27636;52.610;13.244;2024-01-07T11:55:31;0.50;99.90
41944;DHT22;27636;52.610;13.244;2024-01-07T12:00:36;0.60;99.90
41944;DHT22;27636;52.610;13.244;2024-01-07T12:05:41;0.50;99.90
41944;DHT22;27636;52.610;13.244;2024-01-07T12:10:47;0.60;99.90
41944;DHT22;27636;52.610;13.244;2024-01-07T12:15:51;0.70;99.90
41944;DHT22;27636;52.610;13.244;2024-01-07T12:20:57;0.90;99.90
41944;DHT22;27636;52.610;13.244;2024-01-07T12:26:08;0.70;99.90
41944;DHT22;27636;52.610;13.244;2024-01-07T12:31:12;0.50;99.90
41944;DHT22;27636;52.610;13.244;2024-01-07T12:36:21;0.60;99.90
41944;DHT22;27636;52.610;13.244;2024-01-07T12:41:25;0.50;99.90
41944;DHT22;27636;52.610;13.244;2024-01-07T12:46:30;0.50;99.90
41944;DHT22;27636;52.610;13.244;2024-01-07T12:51:36;0.60;99.90
41944;DHT22;27636;52.610;13.244;2024-01-07T12:56:41;0.60;99.90
41944;DHT22;27636;52.610;13.244;2024-01-07T13:01:45;0.50;99.90
41944;DHT22;27636;52.610;13.244;2024-01-07T13:06:51;0.50;99.90
41944;DHT22;27636;52.610;13.244;2024-01-07T13:11:57;0.40;99.90
41944;DHT22;27636;52.610;13.244;2024-01-07T13:17:01;0.50;99.90
41944;DHT22;27636;52.610;13.244;2024-01-07T13:22:07;0.50;99.90
41944;DHT22;27636;52.610;13.244;2024-01-07T13:27:13;0.50;99.90
41944;DHT22;27636;52.610;13.244;2024-01-07T13:32:18;0.50;99.90
41944;DHT22;27636;52.610;13.244;2024-01-07T13:37:23;0.50;99.90
41944;DHT22;27636;52.610;13.244;2024-01-07T13:42:33;0.50;99.90
41944;DHT22;27636;52.610;13.244;2024-01-07T13:47:38;0.50;99.90
41944;DHT22;27636;52.610;13.244;2024-01-07T13:52:45;0.50;99.90
41944;DHT22;27636;52.610;13.244;2024-01-07T13:57:51;0.40;99.90
41944;DHT22;27636;52.610;13.244;2024-01-07T14:02:55;0.40;99.90
41944;DHT22;27636;52.610;13.244;2024-01-07T14:08:00;0.50;99.90
41944;DHT22;27636;52.610;13.244;2024-01-07T14:13:04;0.50;99.90
41944;DHT22;27636;52.610;13.244;2024-01-07T14:18:09;0.40;99.90
41944;DHT22;27636;52.610;13.244;2024-01-07T14:23:20;0.40;99.90
41944;DHT22;27636;52.610;13.244;2024-01-07T14:28:24;0.30;99.90
41944;DHT22;27636;52.610;13.244;2024-01-07T14:35:40;0.30;99.90
41944;DHT22;27636;52.610;13.244;2024-01-07T14:40:49;0.30;99.90
41944;DHT22;27636;52.610;13.244;2024-01-07T14:45:55;0.30;99.90
41944;DHT22;27636;52.610;13.244;2024-01-07T14:51:01;0.20;99.90
41944;DHT22;27636;52.610;13.244;2024-01-07T14:56:05;0.10;99.90
41944;DHT22;27636;52.610;13.244;2024-01-07T15:01:10;0.10;99.90
41944;DHT22;27636;52.610;13.244;2024-01-07T15:06:17;0.00;99.90
41944;DHT22;27636;52.610;13.244;2024-01-07T15:11:21;-0.10;99.90
41944;DHT22;27636;52.610;13.244;2024-01-07T15:16:26;0.00;99.90
41944;DHT22;27636;52.610;13.244;2024-01-07T15:21:32;0.00;99.90
41944;DHT22;27636;52.610;13.244;2024-01-07T15:26:36;-0.10;99.90
41944;DHT22;27636;52.610;13.244;2024-01-07T15:31:43;0.00;99.90
41944;DHT22;27636;52.610;13.244;2024-01-07T15:36:48;0.10;99.90
41944;DHT22;27636;52.610;13.244;2024-01-07T15:41:52;0.00;99.90
41944;DHT22;27636;52.610;13.244;2024-01-07T15:46:58;-0.10;99.90
41944;DHT22;27636;52.610;13.244;2024-01-07T15:52:05;-0.20;99.90
41944;DHT22;27636;52.610;13.244;2024-01-07T15:57:09;-0.20;99.90
41944;DHT22;27636;52.610;13.244;2024-01-07T16:02:14;-0.20;99.90
41944;DHT22;27636;52.610;13.244;2024-01-07T16:07:19;-0.10;99.90
41944;DHT22;27636;52.610;13.244;2024-01-07T16:12:24;-0.10;99.90
41944;DHT22;27636;52.610;13.244;2024-01-07T16:17:28;-0.30;99.90
41944;DHT22;27636;52.610;13.244;2024-01-07T16:22:33;-0.30;99.90
41944;DHT22;27636;52.610;13.244;2024-01-07T16:27:38;-0.40;99.90
41944;DHT22;27636;52.610;13.244;2024-01-07T16:32:42;-0.50;99.90
41944;DHT22;27636;52.610;13.244;2024-01-07T16:37:50;-0.50;99.90
41944;DHT22;27636;52.610;13.244;2024-01-07T16:42:54;-0.50;99.90
41944;DHT22;27636;52.610;13.244;2024-01-07T16:47:59;-0.50;99.90
41944;DHT22;27636;52.610;13.244;2024-01-07T16:53:08;-0.50;99.90
41944;DHT22;27636;52.610;13.244;2024-01-07T16:58:12;-0.30;99.90
41944;DHT22;27636;52.610;13.244;2024-01-07T17:03:17;-0.30;99.90
41944;DHT22;27636;52.610;13.244;2024-01-07T17:08:22;-0.20;99.90
41944;DHT22;27636;52.610;13.244;2024-01-07T17:13:26;-0.20;99.90
41944;DHT22;27636;52.610;13.244;2024-01-07T17:18:30;-0.10;99.90
41944;DHT22;27636;52.610;13.244;2024-01-07T17:23:36;-0.20;99.90
41944;DHT22;27636;52.610;13.244;2024-01-07T17:28:40;-0.30;99.90
41944;DHT22;27636;52.610;13.244;2024-01-07T17:33:44;-0.20;99.90
41944;DHT22;27636;52.610;13.244;2024-01-07T17:38:50;-0.30;99.90
41944;DHT22;27636;52.610;13.244;2024-01-07T17:43:54;-0.30;99.90
41944;DHT22;27636;52.610;13.244;2024-01-07T17:48:58;-0.30;99.90
41944;DHT22;27636;52.610;13.244;2024-01-07T17:54:04;-0.30;99.90
41944;DHT22;27636;52.610;13.244;2024-01-07T17:59:08;-0.30;99.90
41944;DHT22;27636;52.610;13.244;2024-01-07T18:04:12;-0.30;99.90
41944;DHT22;27636;52.610;13.244;2024-01-07T18:09:18;-0.30;99.90
41944;DHT22;27636;52.610;13.244;2024-01-07T18:14:22;-0.30;99.90
41944;DHT22;27636;52.610;13.244;2024-01-07T18:19:28;-0.20;99.90
41944;DHT22;27636;52.610;13.244;2024-01-07T18:24:40;-0.20;99.90
41944;DHT22;27636;52.610;13.244;2024-01-07T18:29:45;-0.20;99.90
41944;DHT22;27636;52.610;13.244;2024-01-07T18:34:51;-0.30;99.90
41944;DHT22;27636;52.610;13.244;2024-01-07T18:39:57;-0.20;99.90
41944;DHT22;27636;52.610;13.244;2024-01-07T18:45:01;-0.30;99.90
41944;DHT22;27636;52.610;13.244;2024-01-07T18:50:07;-0.40;99.90
41944;DHT22;27636;52.610;13.244;2024-01-07T18:55:17;-0.30;99.90
41944;DHT22;27636;52.610;13.244;2024-01-07T19:00:23;-0.40;99.90
41944;DHT22;27636;52.610;13.244;2024-01-07T19:05:29;-0.40;99.90
41944;DHT22;27636;52.610;13.244;2024-01-07T19:10:34;-0.50;99.90
41944;DHT22;27636;52.610;13.244;2024-01-07T19:15:38;-0.50;99.90
41944;DHT22;27636;52.610;13.244;2024-01-07T19:20:44;-0.60;99.90
41944;DHT22;27636;52.610;13.244;2024-01-07T19:25:51;-0.60;99.90
41944;DHT22;27636;52.610;13.244;2024-01-07T19:30:55;-0.70;99.90
41944;DHT22;27636;52.610;13.244;2024-01-07T19:36:02;-0.80;99.90
41944;DHT22;27636;52.610;13.244;2024-01-07T19:41:19;-0.90;99.90
41944;DHT22;27636;52.610;13.244;2024-01-07T19:46:23;-1.20;99.90
41944;DHT22;27636;52.610;13.244;2024-01-07T19:51:28;-1.20;99.90
41944;DHT22;27636;52.610;13.244;2024-01-07T19:56:33;-1.50;99.90
41944;DHT22;27636;52.610;13.244;2024-01-07T20:01:38;-1.70;99.90
41944;DHT22;27636;52.610;13.244;2024-01-07T20:06:42;-1.70;99.90
41944;DHT22;27636;52.610;13.244;2024-01-07T20:11:48;-1.90;99.90
41944;DHT22;27636;52.610;13.244;2024-01-07T20:16:52;-2.10;99.90
41944;DHT22;27636;52.610;13.244;2024-01-07T20:21:57;-2.40;99.90
41944;DHT22;27636;52.610;13.244;2024-01-07T20:27:03;-2.80;99.90
41944;DHT22;27636;52.610;13.244;2024-01-07T20:32:07;-2.90;99.90
41944;DHT22;27636;52.610;13.244;2024-01-07T20:37:12;-3.10;99.90
41944;DHT22;27636;52.610;13.244;2024-01-07T20:42:18;-3.30;99.90
41944;DHT22;27636;52.610;13.244;2024-01-07T20:47:41;-3.40;99.90
41944;DHT22;27636;52.610;13.244;2024-01-07T20:52:46;-3.60;99.90
41944;DHT22;27636;52.610;13.244;2024-01-07T20:57:55;-3.80;99.90
41944;DHT22;27636;52.610;13.244;2024-01-07T21:02:59;-4.00;99.90
41944;DHT22;27636;52.610;13.244;2024-01-07T21:08:03;-4.00;99.90
41944;DHT22;27636;52.610;13.244;2024-01-07T21:13:09;-4.20;99.90
41944;DHT22;27636;52.610;13.244;2024-01-07T21:18:14;-4.20;99.80
41944;DHT22;27636;52.610;13.244;2024-01-07T21:23:20;-4.30;99.90
41944;DHT22;27636;52.610;13.244;2024-01-07T21:28:26;-4.50;99.90
41944;DHT22;27636;52.610;13.244;2024-01-07T21:33:33;-4.60;99.90
41944;DHT22;27636;52.610;13.244;2024-01-07T21:38:39;-4.70;99.90
41944;DHT22;27636;52.610;13.244;2024-01-07T21:43:44;-4.80;99.90
41944;DHT22;27636;52.610;13.244;2024-01-07T21:48:48;-4.90;99.90
41944;DHT22;27636;52.610;13.244;2024-01-07T21:53:52;-4.90;99.90
41944;DHT22;27636;52.610;13.244;2024-01-07T21:58:58;-5.10;99.90
41944;DHT22;27636;52.610;13.244;2024-01-07T22:04:03;-5.20;99.90
41944;DHT22;27636;52.610;13.244;2024-01-07T22:09:07;-5.30;99.90
41944;DHT22;27636;52.610;13.244;2024-01-07T22:14:13;-5.30;99.60
41944;DHT22;27636;52.610;13.244;2024-01-07T22:19:18;-5.50;99.50
41944;DHT22;27636;52.610;13.244;2024-01-07T22:24:22;-5.50;99.90
41944;DHT22;27636;52.610;13.244;2024-01-07T22:29:28;-5.70;99.90
41944;DHT22;27636;52.610;13.244;2024-01-07T22:34:32;-5.80;99.90
41944;DHT22;27636;52.610;13.244;2024-01-07T22:39:36;-5.80;99.90
41944;DHT22;27636;52.610;13.244;2024-01-07T22:44:41;-5.90;99.90
41944;DHT22;27636;52.610;13.244;2024-01-07T22:49:45;-5.90;99.90
41944;DHT22;27636;52.610;13.244;2024-01-07T22:54:49;-6.00;99.90
41944;DHT22;27636;52.610;13.244;2024-01-07T22:59:54;-6.20;99.90
41944;DHT22;27636;52.610;13.244;2024-01-07T23:04:59;-6.20;99.90
41944;DHT22;27636;52.610;13.244;2024-01-07T23:10:06;-6.30;99.90
41944;DHT22;27636;52.610;13.244;2024-01-07T23:15:11;-6.30;99.90
41944;DHT22;27636;52.610;13.244;2024-01-07T23:20:16;-6.40;99.90
41944;DHT22;27636;52.610;13.244;2024-01-07T23:25:21;-6.40;99.90
41944;DHT22;27636;52.610;13.244;2024-01-07T23:30:27;-6.40;99.90
41944;DHT22;27636;52.610;13.244;2024-01-07T23:35:31;-6.50;99.90
41944;DHT22;27636;52.610;13.244;2024-01-07T23:40:39;-6.60;99.90
41944;DHT22;27636;52.610;13.244;2024-01-07T23:45:44;-6.70;99.90
41944;DHT22;27636;52.610;13.244;2024-01-07T23:50:49;-6.60;99.90
41944;DHT22;27636;52.610;13.244;2024-01-07T23:55:53;-6.70;99.90
